Flight Information

DEPARTURE
RENO, NV
Elevation:
4414
Runways:
16R/34L - 11001x150 - CONC-G
16L/34R - 9000x150 - CONC-G
7/25 - 6102x150 - CONC-G
Active PE Departure:
16R
Current PE ATIS:
F
Altimeter:
30.29
Remarks:
V F R DEPARTURES CONTACT CLEARANCE DELIVERY, ADVISE ON COURSE HEADING, ALTITUDE, AND IF FLIGHT FOLLOWING IS REQUESTED. NOTICE TO AIRMEN RUNWAY 1 6 LEFT 3 4 RIGHT CLOSED.
ATIS:
135.8 775-348-1550
Clearance Delivery:
124.9
Ground:
121.9
Tower:
RENO TOWER 118.7
DESTINATION
,
Elevation:
TPA:
1000 (est.)


6751.3 NM70° True-16° Var53° HDG

Flight Plan:
(click to file on line)

1. Type
2. Aircraft Identification
3. Aircraft Type / Special Equipment
4. True Airspeed
kts
5. Departure Airport
(ICAO code)
6. Arriving Airport
(ICAO code)
7. Cruising Altitude
ft
8. Alternate Airport
(ICAO code)
9. Route of Flight
10. Remarks


00:00:00 Departure ATIS: Destination ATIS:

Clearance Limit:
Route:
Altitude: Expect in minutes
Frequency:
Transponder: (7500 Hijack / 7600 Lost Comms / 7700 Emergency)


KRNO 010255Z 27003KT 4SM HZ FU BKN042 22/00 A3029 RMK AO2 SLP220 FU BKN042 T02220000 53005
Time: 2020-10-01T02:55:00Z
1601522379
Winds: 270 @ 3 kts
Visibility: 4.0 sm
Clouds (AGL): BKN 4200
Temperature: 22.2 C
Dew Point: 0.0 C
Pressure: 30.28937 in Hgbr


Notes:

Data extracted from FAA Digital Chart Supplement. Effective: 0901Z Thursday, Sep 10, 2020 to 0901Z Thursday, Nov 5, 2020
Current ATIS data is provided courtisy of PilotEdge.